Time;durP1;ratioP1;P1;durP2;ratioP2;P2;SDS_P1;SDS_P2;PMS_P1;PMS_P2;Temp;Humidity;BMP_temperature;BMP_pressure;BME280_temperature;BME280_humidity;BME280_pressure;Samples;Min_cycle;Max_cycle;Signal;HPM_P1;HPM_P2
2021/01/27 00:00:01;;;;;;;52.78;36.67;;;;;;;;;;5010100;28;20050;-88
2021/01/27 00:02:27;;;;;;;47.15;34.42;;;;;;;;;;4992387;28;20049;-85
2021/01/27 00:04:53;;;;;;;53.40;38.67;;;;;;;;;;4992780;28;20053;-86
2021/01/27 00:07:20;;;;;;;52.83;37.25;;;;;;;;;;4990480;28;20049;-86
2021/01/27 00:09:46;;;;;;;58.75;40.15;;;;;;;;;;4992307;28;20489;-84
2021/01/27 00:12:12;;;;;;;54.50;38.05;;;;;;;;;;4992221;28;20445;-85
2021/01/27 00:14:38;;;;;;;58.35;40.17;;;;;;;;;;5009288;28;20073;-83
2021/01/27 00:17:04;;;;;;;55.75;38.45;;;;;;;;;;4993662;28;20038;-85
2021/01/27 00:19:30;;;;;;;53.58;38.92;;;;;;;;;;5009777;28;20065;-85
2021/01/27 00:21:57;;;;;;;60.45;39.38;;;;;;;;;;5023445;28;20038;-84
2021/01/27 00:24:23;;;;;;;54.97;40.03;;;;;;;;;;5009121;28;21849;-84
2021/01/27 00:26:49;;;;;;;60.13;40.95;;;;;;;;;;4993979;28;20057;-83
2021/01/27 00:29:15;;;;;;;62.60;39.47;;;;;;;;;;4993100;28;20077;-84
2021/01/27 00:31:41;;;;;;;53.88;39.50;;;;;;;;;;5014649;28;20052;-83
2021/01/27 00:34:08;;;;;;;59.58;41.97;;;;;;;;;;5008680;28;20093;-84
2021/01/27 00:36:34;;;;;;;61.03;40.40;;;;;;;;;;5010753;28;20128;-84
2021/01/27 00:39:00;;;;;;;50.95;40.45;;;;;;;;;;5010540;28;20484;-84
2021/01/27 00:41:26;;;;;;;55.88;41.03;;;;;;;;;;5009990;28;20042;-84
2021/01/27 00:43:53;;;;;;;56.65;40.20;;;;;;;;;;5022021;28;20058;-84
2021/01/27 00:46:19;;;;;;;55.70;40.88;;;;;;;;;;5009523;28;20046;-84
2021/01/27 00:48:48;;;;;;;56.97;40.97;;;;;;;;;;4995294;28;20444;-84
2021/01/27 00:51:15;;;;;;;54.45;41.00;;;;;;;;;;5009598;28;20405;-83
2021/01/27 00:53:42;;;;;;;58.42;42.15;;;;;;;;;;5012992;28;20045;-83
2021/01/27 00:56:08;;;;;;;55.03;41.72;;;;;;;;;;5012619;28;20041;-84
2021/01/27 00:58:34;;;;;;;58.65;41.60;;;;;;;;;;5014093;28;20042;-84
2021/01/27 01:01:01;;;;;;;61.65;44.45;;;;;;;;;;5021391;28;20129;-84
2021/01/27 01:03:27;;;;;;;60.53;44.75;;;;;;;;;;5009958;28;20095;-83
2021/01/27 01:05:53;;;;;;;59.28;42.30;;;;;;;;;;5013302;28;20409;-84
2021/01/27 01:08:20;;;;;;;70.47;44.33;;;;;;;;;;5012066;28;20046;-84
2021/01/27 01:10:48;;;;;;;57.33;40.10;;;;;;;;;;5014564;28;20038;-84
2021/01/27 01:13:15;;;;;;;61.45;43.85;;;;;;;;;;5014782;28;20096;-84
2021/01/27 01:15:41;;;;;;;54.75;40.65;;;;;;;;;;5012420;28;20153;-84
2021/01/27 01:18:08;;;;;;;55.67;43.17;;;;;;;;;;5012586;28;20044;-85
2021/01/27 01:20:34;;;;;;;64.15;44.17;;;;;;;;;;5012377;28;20042;-84
2021/01/27 01:23:01;;;;;;;58.85;42.55;;;;;;;;;;5012679;28;20389;-84
2021/01/27 01:25:28;;;;;;;59.42;41.20;;;;;;;;;;5014904;28;20046;-85
2021/01/27 01:27:55;;;;;;;60.97;43.08;;;;;;;;;;5017056;28;20100;-85
2021/01/27 01:30:24;;;;;;;60.38;41.58;;;;;;;;;;5011336;28;20034;-84
2021/01/27 01:32:51;;;;;;;54.13;40.72;;;;;;;;;;5018983;28;20819;-85
2021/01/27 01:35:18;;;;;;;55.67;39.60;;;;;;;;;;5022923;28;20037;-84
2021/01/27 01:37:44;;;;;;;55.45;37.90;;;;;;;;;;5026219;28;20457;-85
2021/01/27 01:40:12;;;;;;;50.70;39.22;;;;;;;;;;5020509;28;20046;-84
2021/01/27 01:42:38;;;;;;;48.92;37.00;;;;;;;;;;5013279;28;20065;-84
2021/01/27 01:45:14;;;;;;;52.60;37.35;;;;;;;;;;5014962;28;20064;-84
2021/01/27 01:47:41;;;;;;;45.90;36.00;;;;;;;;;;5009953;28;20046;-84
2021/01/27 01:50:07;;;;;;;47.38;35.05;;;;;;;;;;5022151;28;20092;-84
2021/01/27 01:52:33;;;;;;;48.33;35.40;;;;;;;;;;5013898;28;20054;-84
2021/01/27 01:55:01;;;;;;;48.63;34.28;;;;;;;;;;4996019;28;20461;-84
2021/01/27 01:57:29;;;;;;;43.33;34.50;;;;;;;;;;5017516;28;20064;-84
2021/01/27 02:00:05;;;;;;;46.92;33.50;;;;;;;;;;5015497;28;20073;-84
2021/01/27 02:02:33;;;;;;;45.13;35.28;;;;;;;;;;5013977;28;20049;-84
2021/01/27 02:05:01;;;;;;;40.45;30.70;;;;;;;;;;5004418;28;20042;-84
2021/01/27 02:07:28;;;;;;;40.55;30.95;;;;;;;;;;5015421;28;20125;-83
2021/01/27 02:09:54;;;;;;;36.15;29.27;;;;;;;;;;5017637;28;20413;-84
2021/01/27 02:12:20;;;;;;;36.08;28.38;;;;;;;;;;5024864;28;20046;-84
2021/01/27 02:14:49;;;;;;;40.33;27.02;;;;;;;;;;5011456;28;20038;-84
2021/01/27 02:17:28;;;;;;;35.78;26.88;;;;;;;;;;5024011;28;20046;-84
2021/01/27 02:19:57;;;;;;;39.28;29.55;;;;;;;;;;5011405;28;20037;-84
2021/01/27 02:22:42;;;;;;;35.78;26.92;;;;;;;;;;5020129;28;20129;-84
2021/01/27 02:25:20;;;;;;;33.03;24.95;;;;;;;;;;5004776;28;20045;-85
2021/01/27 02:27:58;;;;;;;35.83;26.55;;;;;;;;;;5026526;28;20393;-85
2021/01/27 02:30:45;;;;;;;32.78;25.00;;;;;;;;;;5004592;28;20072;-86
2021/01/27 02:33:24;;;;;;;30.02;23.85;;;;;;;;;;5024626;28;20469;-84
2021/01/27 02:36:01;;;;;;;31.17;24.05;;;;;;;;;;5013072;28;20081;-84
2021/01/27 02:38:35;;;;;;;31.85;23.60;;;;;;;;;;5016619;28;20042;-84
2021/01/27 02:41:02;;;;;;;27.33;21.25;;;;;;;;;;5012497;28;20505;-85
2021/01/27 02:43:34;;;;;;;30.40;21.63;;;;;;;;;;5011850;28;20033;-84
2021/01/27 02:46:02;;;;;;;26.08;20.45;;;;;;;;;;5012253;28;20543;-85
2021/01/27 02:48:41;;;;;;;24.65;20.08;;;;;;;;;;5010501;28;20046;-84
2021/01/27 02:51:10;;;;;;;33.28;20.58;;;;;;;;;;5010584;28;20493;-84
2021/01/27 02:53:40;;;;;;;29.23;21.35;;;;;;;;;;5011807;28;20049;-84
2021/01/27 02:56:13;;;;;;;26.58;19.40;;;;;;;;;;5012047;28;20042;-84
2021/01/27 02:58:46;;;;;;;25.80;19.33;;;;;;;;;;5011449;28;20042;-85
2021/01/27 03:01:23;;;;;;;24.10;19.10;;;;;;;;;;5011990;28;20769;-84
2021/01/27 03:03:54;;;;;;;25.88;18.45;;;;;;;;;;5019111;28;20043;-84
2021/01/27 03:06:21;;;;;;;23.73;18.05;;;;;;;;;;5021643;28;20038;-86
2021/01/27 03:09:02;;;;;;;21.88;17.52;;;;;;;;;;5023274;28;20537;-85
2021/01/27 03:11:30;;;;;;;20.95;16.08;;;;;;;;;;4994138;28;20108;-84
2021/01/27 03:13:57;;;;;;;22.48;16.83;;;;;;;;;;5019772;28;20070;-85
2021/01/27 03:16:34;;;;;;;22.45;17.55;;;;;;;;;;5018845;28;20129;-85
2021/01/27 03:19:02;;;;;;;24.35;13.90;;;;;;;;;;5018914;28;20044;-85
2021/01/27 03:21:31;;;;;;;20.75;13.40;;;;;;;;;;5009526;28;20109;-85
2021/01/27 03:24:00;;;;;;;19.85;14.55;;;;;;;;;;5011481;28;20038;-85
2021/01/27 03:26:47;;;;;;;16.35;14.00;;;;;;;;;;4995082;28;20144;-85
2021/01/27 03:29:13;;;;;;;17.23;13.40;;;;;;;;;;5005994;28;20042;-85
2021/01/27 03:31:39;;;;;;;19.27;13.25;;;;;;;;;;5010208;28;20080;-85
2021/01/27 03:34:07;;;;;;;20.15;14.20;;;;;;;;;;5010316;28;20050;-85
2021/01/27 03:36:37;;;;;;;22.45;15.13;;;;;;;;;;5018616;28;20038;-85
2021/01/27 03:39:04;;;;;;;20.35;14.63;;;;;;;;;;5015985;28;20041;-85
2021/01/27 03:41:36;;;;;;;19.23;13.98;;;;;;;;;;5016167;28;20477;-85
2021/01/27 03:44:15;;;;;;;19.58;13.55;;;;;;;;;;5020637;28;20076;-85
2021/01/27 03:46:43;;;;;;;16.98;13.82;;;;;;;;;;5024789;28;20485;-85
2021/01/27 03:49:14;;;;;;;16.08;13.15;;;;;;;;;;5010468;28;20089;-85
2021/01/27 03:51:45;;;;;;;17.98;12.20;;;;;;;;;;5023166;28;20583;-85
2021/01/27 03:54:14;;;;;;;15.07;11.48;;;;;;;;;;5010030;28;20034;-85
2021/01/27 03:56:43;;;;;;;14.85;11.00;;;;;;;;;;5025450;28;20048;-85
2021/01/27 03:59:11;;;;;;;16.45;10.70;;;;;;;;;;5001687;28;20489;-85
2021/01/27 04:01:50;;;;;;;17.50;11.00;;;;;;;;;;5023358;28;20518;-85
2021/01/27 04:04:16;;;;;;;15.10;10.50;;;;;;;;;;4997947;28;20121;-84
2021/01/27 04:06:42;;;;;;;16.88;9.82;;;;;;;;;;4992773;28;20038;-84
2021/01/27 04:09:08;;;;;;;13.05;9.95;;;;;;;;;;5016827;28;20093;-85
2021/01/27 04:11:34;;;;;;;15.88;12.18;;;;;;;;;;4999880;28;20038;-85
2021/01/27 04:14:01;;;;;;;15.75;10.63;;;;;;;;;;5009448;28;20485;-85
2021/01/27 04:16:27;;;;;;;14.98;11.05;;;;;;;;;;5005770;28;20379;-84
2021/01/27 04:18:53;;;;;;;16.33;11.68;;;;;;;;;;5016345;28;20042;-85
2021/01/27 04:21:19;;;;;;;16.20;10.80;;;;;;;;;;5010610;28;20053;-85
2021/01/27 04:23:45;;;;;;;15.10;10.82;;;;;;;;;;5009058;28;20045;-85
2021/01/27 04:26:13;;;;;;;23.65;12.43;;;;;;;;;;5020682;28;20493;-85
2021/01/27 04:28:39;;;;;;;14.82;11.77;;;;;;;;;;5027287;28;20440;-85
2021/01/27 04:31:05;;;;;;;17.05;12.55;;;;;;;;;;5026763;28;20041;-85
2021/01/27 04:33:31;;;;;;;17.42;12.02;;;;;;;;;;4996879;28;20066;-85
2021/01/27 04:35:57;;;;;;;19.70;13.52;;;;;;;;;;5022157;28;20117;-85
2021/01/27 04:38:24;;;;;;;17.02;12.82;;;;;;;;;;5013067;28;20042;-84
2021/01/27 04:40:54;;;;;;;21.10;14.13;;;;;;;;;;5012193;28;20045;-85
2021/01/27 04:43:30;;;;;;;21.63;13.25;;;;;;;;;;5013070;28;20042;-85
2021/01/27 04:46:02;;;;;;;25.50;14.65;;;;;;;;;;5011326;28;20268;-85
2021/01/27 04:48:48;;;;;;;18.27;14.02;;;;;;;;;;5012728;28;20053;-84
2021/01/27 04:51:18;;;;;;;23.90;14.85;;;;;;;;;;4992883;28;20056;-85
2021/01/27 04:53:57;;;;;;;18.52;14.85;;;;;;;;;;5014469;28;20117;-84
2021/01/27 04:56:32;;;;;;;22.17;16.33;;;;;;;;;;5007324;28;20071;-84
2021/01/27 04:59:22;;;;;;;25.33;16.83;;;;;;;;;;4996878;28;20056;-84
2021/01/27 05:01:48;;;;;;;17.02;14.45;;;;;;;;;;5012255;28;20381;-85
2021/01/27 05:04:29;;;;;;;26.15;16.90;;;;;;;;;;5012531;28;20034;-85
2021/01/27 05:07:01;;;;;;;22.25;16.48;;;;;;;;;;5021629;28;20572;-85
2021/01/27 05:09:37;;;;;;;25.60;18.30;;;;;;;;;;5013909;28;20038;-84
2021/01/27 05:12:05;;;;;;;25.48;18.45;;;;;;;;;;5018306;28;20433;-85
2021/01/27 05:14:31;;;;;;;23.25;16.58;;;;;;;;;;5012868;28;20121;-86
2021/01/27 05:16:59;;;;;;;25.10;18.58;;;;;;;;;;5011673;28;20481;-84
2021/01/27 05:19:25;;;;;;;23.40;17.70;;;;;;;;;;5021549;28;20117;-84
2021/01/27 05:21:56;;;;;;;21.58;17.23;;;;;;;;;;5013134;28;20041;-84
2021/01/27 05:24:23;;;;;;;20.63;16.55;;;;;;;;;;5012213;28;20044;-85
2021/01/27 05:26:52;;;;;;;21.27;16.63;;;;;;;;;;5021110;28;20046;-85
2021/01/27 05:29:24;;;;;;;21.95;17.73;;;;;;;;;;5022099;28;20038;-84
2021/01/27 05:31:57;;;;;;;24.00;18.00;;;;;;;;;;5010161;28;20540;-84
2021/01/27 05:34:35;;;;;;;26.63;18.63;;;;;;;;;;5028828;28;20072;-84
2021/01/27 05:37:02;;;;;;;24.23;18.05;;;;;;;;;;5013509;28;20037;-85
2021/01/27 05:39:30;;;;;;;18.55;15.55;;;;;;;;;;5014451;28;20038;-85
2021/01/27 05:42:07;;;;;;;21.42;16.17;;;;;;;;;;5024913;28;20069;-84
2021/01/27 05:44:33;;;;;;;22.42;15.13;;;;;;;;;;5009872;28;20054;-84
2021/01/27 05:47:19;;;;;;;23.55;17.00;;;;;;;;;;5011480;28;20035;-84
2021/01/27 05:49:45;;;;;;;25.25;16.92;;;;;;;;;;5011439;28;20046;-82
2021/01/27 05:52:13;;;;;;;22.85;17.95;;;;;;;;;;5014921;28;20041;-82
2021/01/27 05:54:39;;;;;;;23.35;17.35;;;;;;;;;;5012738;28;20040;-83
2021/01/27 05:57:26;;;;;;;25.42;17.65;;;;;;;;;;4995860;28;20045;-82
2021/01/27 06:00:08;;;;;;;25.48;18.25;;;;;;;;;;5027321;28;20061;-82
2021/01/27 06:02:39;;;;;;;29.65;20.17;;;;;;;;;;5012083;28;20125;-82
2021/01/27 06:05:39;;;;;;;29.75;18.05;;;;;;;;;;4999619;28;20069;-86
2021/01/27 06:08:11;;;;;;;22.67;18.25;;;;;;;;;;4996615;28;20050;-82
2021/01/27 06:10:37;;;;;;;27.30;17.95;;;;;;;;;;5012176;28;20064;-82
2021/01/27 06:13:17;;;;;;;33.72;21.88;;;;;;;;;;5001477;28;20050;-83
2021/01/27 06:15:43;;;;;;;33.60;21.10;;;;;;;;;;5012917;28;20068;-86
2021/01/27 06:18:39;;;;;;;28.98;19.73;;;;;;;;;;5013426;28;20046;-88
2021/01/27 06:21:24;;;;;;;29.42;20.77;;;;;;;;;;4983716;28;20046;-88
2021/01/27 06:23:59;;;;;;;28.85;20.65;;;;;;;;;;4997011;28;20052;-84
2021/01/27 06:26:25;;;;;;;;;;;;;;;;;;5012860;28;20397;-83
2021/01/27 06:28:54;;;;;;;27.65;18.75;;;;;;;;;;5010655;28;20377;-84
2021/01/27 06:31:39;;;;;;;29.52;19.40;;;;;;;;;;5010696;28;20050;-82
2021/01/27 06:34:24;;;;;;;31.42;19.10;;;;;;;;;;5021516;28;20256;-87
2021/01/27 06:36:53;;;;;;;29.83;19.92;;;;;;;;;;5011228;28;20454;-81
2021/01/27 06:39:25;;;;;;;28.13;19.45;;;;;;;;;;5012418;28;20038;-84
2021/01/27 06:42:01;;;;;;;28.80;19.55;;;;;;;;;;5010101;28;20041;-85
2021/01/27 06:44:30;;;;;;;28.50;18.42;;;;;;;;;;5012316;28;20065;-85
2021/01/27 06:46:59;;;;;;;28.63;19.45;;;;;;;;;;5004837;28;20042;-87
2021/01/27 06:49:25;;;;;;;37.13;22.63;;;;;;;;;;5010754;28;20041;-86
2021/01/27 06:51:54;;;;;;;30.92;19.95;;;;;;;;;;4994192;28;20405;-84
2021/01/27 06:54:27;;;;;;;28.23;18.08;;;;;;;;;;5009821;28;20041;-85
2021/01/27 06:57:02;;;;;;;26.77;17.08;;;;;;;;;;5019862;28;20065;-86
2021/01/27 06:59:56;;;;;;;25.75;18.38;;;;;;;;;;5011724;28;20053;-88
2021/01/27 07:02:41;;;;;;;27.07;19.27;;;;;;;;;;4981348;28;20140;-86
2021/01/27 07:05:07;;;;;;;29.33;19.30;;;;;;;;;;5008152;28;20827;-87
2021/01/27 07:07:36;;;;;;;29.42;19.77;;;;;;;;;;4995000;28;20061;-87
2021/01/27 07:10:02;;;;;;;25.17;18.23;;;;;;;;;;5010041;28;20049;-87
2021/01/27 07:12:41;;;;;;;34.13;20.27;;;;;;;;;;4994251;28;20049;-87
2021/01/27 07:15:25;;;;;;;29.58;19.60;;;;;;;;;;4993229;28;20447;-87
2021/01/27 07:18:09;;;;;;;26.33;18.50;;;;;;;;;;4994059;28;20056;-86
2021/01/27 07:20:48;;;;;;;25.63;18.65;;;;;;;;;;5023384;28;20125;-90
2021/01/27 07:23:18;;;;;;;30.45;18.95;;;;;;;;;;4994270;28;20061;-87
2021/01/27 07:25:48;;;;;;;31.80;20.77;;;;;;;;;;4995072;28;20057;-88
2021/01/27 07:28:20;;;;;;;35.80;21.65;;;;;;;;;;4993052;28;20168;-86
2021/01/27 07:30:53;;;;;;;26.48;18.65;;;;;;;;;;5026541;28;20122;-82
2021/01/27 07:33:22;;;;;;;31.48;20.02;;;;;;;;;;5026163;28;20048;-83
2021/01/27 07:36:00;;;;;;;33.47;20.98;;;;;;;;;;5011094;28;20049;-82
2021/01/27 07:38:29;;;;;;;31.10;20.92;;;;;;;;;;4995879;28;20057;-82
2021/01/27 07:40:58;;;;;;;27.98;20.42;;;;;;;;;;5011485;28;20049;-84
2021/01/27 07:43:29;;;;;;;32.58;22.30;;;;;;;;;;5013399;28;20053;-81
2021/01/27 07:45:55;;;;;;;36.47;23.48;;;;;;;;;;4996681;28;20034;-85
2021/01/27 07:48:29;;;;;;;28.45;20.88;;;;;;;;;;5006339;28;20374;-82
2021/01/27 07:50:57;;;;;;;35.88;23.88;;;;;;;;;;5013328;28;20080;-84
2021/01/27 07:53:26;;;;;;;37.45;22.42;;;;;;;;;;5007042;28;20378;-82
2021/01/27 07:56:12;;;;;;;34.47;22.08;;;;;;;;;;5005674;28;20048;-82
2021/01/27 07:58:38;;;;;;;29.08;20.95;;;;;;;;;;5008174;28;20049;-83
2021/01/27 08:01:09;;;;;;;30.60;21.02;;;;;;;;;;5012159;28;20045;-83
2021/01/27 08:03:54;;;;;;;28.67;21.80;;;;;;;;;;5003728;28;20046;-83
2021/01/27 08:06:22;;;;;;;31.67;23.13;;;;;;;;;;5002606;28;20042;-83
2021/01/27 08:08:50;;;;;;;29.38;22.65;;;;;;;;;;5004688;28;20041;-85
2021/01/27 08:11:21;;;;;;;26.35;20.33;;;;;;;;;;5003883;28;20095;-82
2021/01/27 08:13:47;;;;;;;29.20;21.25;;;;;;;;;;5003961;28;20041;-84
2021/01/27 08:16:14;;;;;;;28.50;21.00;;;;;;;;;;5006722;28;20046;-83
2021/01/27 08:19:03;;;;;;;24.95;20.30;;;;;;;;;;5009969;28;20103;-82
2021/01/27 08:21:30;;;;;;;26.33;19.00;;;;;;;;;;5008339;28;20058;-82
2021/01/27 08:23:56;;;;;;;24.30;19.88;;;;;;;;;;5009889;28;20049;-86
2021/01/27 08:26:41;;;;;;;22.95;18.40;;;;;;;;;;5010199;28;20046;-83
2021/01/27 08:29:09;;;;;;;24.10;18.15;;;;;;;;;;5004355;28;20121;-83
2021/01/27 08:31:35;;;;;;;21.85;17.30;;;;;;;;;;5010416;28;20510;-82
2021/01/27 08:34:01;;;;;;;25.88;19.65;;;;;;;;;;5009391;28;20042;-85
2021/01/27 08:36:34;;;;;;;21.88;17.83;;;;;;;;;;5010070;28;20057;-82
2021/01/27 08:39:02;;;;;;;20.70;16.27;;;;;;;;;;5024087;28;20045;-84
2021/01/27 08:41:44;;;;;;;23.88;18.08;;;;;;;;;;5011904;28;20045;-83
2021/01/27 08:44:19;;;;;;;22.92;18.48;;;;;;;;;;5009303;28;20050;-83
2021/01/27 08:46:48;;;;;;;20.38;16.55;;;;;;;;;;5009447;28;20062;-84
2021/01/27 08:49:33;;;;;;;20.65;17.70;;;;;;;;;;5018467;28;20096;-82
2021/01/27 08:51:59;;;;;;;21.55;16.95;;;;;;;;;;5010864;28;20046;-84
2021/01/27 08:54:38;;;;;;;22.55;17.75;;;;;;;;;;5010903;28;20077;-82
2021/01/27 08:57:23;;;;;;;21.73;17.63;;;;;;;;;;4992810;28;20399;-83
2021/01/27 09:00:00;;;;;;;24.52;18.95;;;;;;;;;;5009346;28;20056;-82
2021/01/27 09:02:45;;;;;;;25.85;19.45;;;;;;;;;;5008140;28;20049;-83
2021/01/27 09:05:20;;;;;;;25.88;20.67;;;;;;;;;;5009983;28;20041;-82
2021/01/27 09:07:57;;;;;;;26.13;19.05;;;;;;;;;;5009624;28;20046;-82
2021/01/27 09:10:38;;;;;;;24.98;19.10;;;;;;;;;;5013774;28;20123;-83
2021/01/27 09:13:23;;;;;;;22.02;17.98;;;;;;;;;;5012108;28;20041;-85
2021/01/27 09:16:00;;;;;;;24.35;18.33;;;;;;;;;;4996885;28;20148;-84
2021/01/27 09:18:26;;;;;;;25.98;19.58;;;;;;;;;;5030197;28;20042;-84
2021/01/27 09:20:53;;;;;;;24.45;19.23;;;;;;;;;;4997054;28;20049;-84
2021/01/27 09:23:20;;;;;;;27.58;21.25;;;;;;;;;;5006600;28;20053;-84
2021/01/27 09:25:50;;;;;;;22.92;18.33;;;;;;;;;;4994311;28;20049;-89
2021/01/27 09:28:38;;;;;;;35.40;21.27;;;;;;;;;;5027399;28;20134;-87
2021/01/27 09:31:31;;;;;;;22.80;18.13;;;;;;;;;;4971342;28;20792;-91
2021/01/27 09:40:40;;;;;;;22.55;17.10;;;;;;;;;;4966003;28;20118;-94
2021/01/27 09:43:11;;;;;;;21.42;16.90;;;;;;;;;;4992479;28;20053;-96
2021/01/27 09:45:41;;;;;;;22.03;16.80;;;;;;;;;;4990172;28;20156;-94
2021/01/27 09:49:05;;;;;;;20.23;16.65;;;;;;;;;;4991310;28;20038;-90
2021/01/27 09:55:22;;;;;;;24.20;18.35;;;;;;;;;;4993309;28;20049;-91
2021/01/27 09:57:55;;;;;;;25.38;18.27;;;;;;;;;;4987699;28;20089;-87
2021/01/27 10:00:22;;;;;;;30.77;19.65;;;;;;;;;;4993008;28;20108;-91
2021/01/27 10:02:48;;;;;;;32.30;19.35;;;;;;;;;;5009451;28;20074;-92
2021/01/27 10:05:33;;;;;;;24.60;18.52;;;;;;;;;;4987122;28;20046;-92
2021/01/27 10:08:01;;;;;;;24.83;18.73;;;;;;;;;;5010080;28;20133;-93
2021/01/27 10:10:27;;;;;;;27.17;19.08;;;;;;;;;;5009358;28;20045;-91
2021/01/27 10:12:57;;;;;;;21.45;17.13;;;;;;;;;;4997585;28;20046;-92
2021/01/27 10:15:30;;;;;;;26.80;18.95;;;;;;;;;;4991593;28;20057;-92
2021/01/27 10:18:05;;;;;;;22.48;17.05;;;;;;;;;;5008481;28;20128;-93
2021/01/27 10:20:33;;;;;;;28.98;20.48;;;;;;;;;;5007134;28;20038;-94
2021/01/27 10:23:13;;;;;;;26.63;18.20;;;;;;;;;;5009884;28;20112;-91
2021/01/27 10:25:40;;;;;;;20.83;16.88;;;;;;;;;;5014637;28;20046;-91
2021/01/27 10:28:18;;;;;;;26.08;19.30;;;;;;;;;;4997165;28;20077;-90
2021/01/27 10:30:57;;;;;;;25.35;18.58;;;;;;;;;;4996836;28;20064;-90
2021/01/27 10:33:32;;;;;;;24.40;18.27;;;;;;;;;;5010060;28;20054;-89
2021/01/27 10:35:59;;;;;;;27.75;20.08;;;;;;;;;;4992522;28;20087;-89
2021/01/27 10:38:26;;;;;;;23.90;18.48;;;;;;;;;;5009448;28;21500;-88
2021/01/27 10:41:04;;;;;;;26.90;18.45;;;;;;;;;;4994826;28;20042;-87
2021/01/27 10:43:31;;;;;;;23.45;18.17;;;;;;;;;;5008066;28;20103;-88
2021/01/27 10:45:57;;;;;;;24.05;18.08;;;;;;;;;;4991344;28;20042;-89
2021/01/27 10:48:28;;;;;;;27.00;20.13;;;;;;;;;;5008701;28;20052;-87
2021/01/27 10:51:12;;;;;;;26.70;19.88;;;;;;;;;;5007742;28;20038;-89
2021/01/27 10:53:40;;;;;;;27.17;20.23;;;;;;;;;;5022107;28;20057;-90
2021/01/27 10:56:06;;;;;;;27.30;20.50;;;;;;;;;;5010014;28;20046;-88
2021/01/27 10:58:34;;;;;;;26.55;19.30;;;;;;;;;;4992976;28;20064;-88
2021/01/27 11:01:00;;;;;;;33.53;22.85;;;;;;;;;;5008647;28;20053;-88
2021/01/27 11:03:26;;;;;;;35.45;23.25;;;;;;;;;;4977510;28;20046;-87
2021/01/27 11:05:56;;;;;;;31.23;21.15;;;;;;;;;;4978050;28;20461;-89
2021/01/27 11:08:27;;;;;;;35.15;23.05;;;;;;;;;;4982285;28;20046;-91
2021/01/27 11:11:08;;;;;;;34.35;22.63;;;;;;;;;;5008616;28;20060;-90
2021/01/27 11:13:45;;;;;;;29.15;19.77;;;;;;;;;;4988226;28;20584;-91
2021/01/27 11:16:13;;;;;;;36.10;22.90;;;;;;;;;;4995465;28;20051;-94
2021/01/27 11:18:50;;;;;;;39.95;23.27;;;;;;;;;;5009294;28;20117;-89
2021/01/27 11:21:16;;;;;;;35.25;21.45;;;;;;;;;;5005479;28;20069;-90
2021/01/27 11:23:42;;;;;;;27.35;19.80;;;;;;;;;;5006110;28;20104;-91
2021/01/27 11:26:18;;;;;;;40.42;23.42;;;;;;;;;;4993967;28;20045;-89
2021/01/27 11:28:55;;;;;;;27.02;19.00;;;;;;;;;;5023696;28;20053;-90
2021/01/27 11:31:25;;;;;;;35.90;22.13;;;;;;;;;;5005561;28;20248;-89
2021/01/27 11:33:52;;;;;;;42.85;23.70;;;;;;;;;;4988051;28;20493;-85
2021/01/27 11:36:19;;;;;;;33.75;20.63;;;;;;;;;;5001973;28;20081;-83
2021/01/27 11:38:46;;;;;;;37.63;22.05;;;;;;;;;;5027969;28;20532;-82
2021/01/27 11:41:13;;;;;;;43.30;23.10;;;;;;;;;;5007571;28;20420;-84
2021/01/27 11:43:43;;;;;;;44.30;24.33;;;;;;;;;;5002819;28;20125;-85
2021/01/27 11:46:10;;;;;;;36.75;21.73;;;;;;;;;;5020686;28;20076;-86
2021/01/27 11:48:37;;;;;;;40.35;21.77;;;;;;;;;;4975273;28;20796;-87
2021/01/27 11:51:04;;;;;;;42.30;21.73;;;;;;;;;;5010245;28;20095;-88
2021/01/27 11:53:30;;;;;;;49.97;23.67;;;;;;;;;;5003050;28;20073;-86
2021/01/27 11:55:57;;;;;;;43.95;22.48;;;;;;;;;;4971808;28;20053;-83
2021/01/27 11:58:24;;;;;;;45.15;22.58;;;;;;;;;;5004705;28;20053;-83
2021/01/27 12:00:51;;;;;;;38.35;22.35;;;;;;;;;;5006719;28;20481;-85
2021/01/27 12:03:17;;;;;;;44.40;22.90;;;;;;;;;;5008897;28;20042;-88
2021/01/27 12:05:44;;;;;;;52.80;24.42;;;;;;;;;;5009655;28;20476;-88
2021/01/27 12:08:10;;;;;;;50.25;23.58;;;;;;;;;;5020176;28;20486;-87
2021/01/27 12:10:37;;;;;;;64.13;25.95;;;;;;;;;;5020037;28;20400;-86
2021/01/27 12:13:03;;;;;;;62.92;28.23;;;;;;;;;;5017299;28;20156;-90
2021/01/27 12:15:33;;;;;;;54.83;25.15;;;;;;;;;;5000597;28;20133;-93
2021/01/27 12:17:59;;;;;;;46.17;23.42;;;;;;;;;;5004328;28;20045;-88
2021/01/27 12:20:25;;;;;;;39.85;22.10;;;;;;;;;;5017235;28;20030;-88
2021/01/27 12:22:52;;;;;;;32.00;20.55;;;;;;;;;;5010883;28;20041;-92
2021/01/27 12:25:18;;;;;;;56.80;24.92;;;;;;;;;;4978550;28;20531;-94
2021/01/27 12:27:44;;;;;;;44.38;24.38;;;;;;;;;;5011699;28;20037;-94
2021/01/27 12:30:12;;;;;;;48.85;25.33;;;;;;;;;;4995069;28;20046;-91
2021/01/27 12:32:39;;;;;;;48.00;24.48;;;;;;;;;;5027170;28;20129;-91
2021/01/27 12:35:06;;;;;;;51.80;25.85;;;;;;;;;;5006605;28;20057;-90
2021/01/27 12:37:32;;;;;;;51.53;25.23;;;;;;;;;;4998439;28;20045;-89
2021/01/27 12:39:59;;;;;;;44.78;23.35;;;;;;;;;;4992959;28;20038;-89
2021/01/27 12:42:25;;;;;;;50.22;23.88;;;;;;;;;;5007011;28;20053;-89
2021/01/27 12:44:51;;;;;;;41.42;22.65;;;;;;;;;;4978937;28;20045;-89
2021/01/27 12:47:22;;;;;;;51.17;24.33;;;;;;;;;;4997364;28;20046;-90
2021/01/27 12:49:48;;;;;;;52.13;24.58;;;;;;;;;;5012790;28;20034;-90
2021/01/27 12:52:15;;;;;;;52.35;23.70;;;;;;;;;;5015773;28;20046;-90
2021/01/27 12:54:41;;;;;;;56.75;26.70;;;;;;;;;;4989264;28;20056;-82
2021/01/27 12:57:08;;;;;;;53.33;25.38;;;;;;;;;;5008794;28;20060;-87
2021/01/27 12:59:34;;;;;;;62.65;27.13;;;;;;;;;;5008166;28;20504;-85
2021/01/27 13:02:01;;;;;;;62.00;26.58;;;;;;;;;;5010689;28;20054;-85
2021/01/27 13:04:27;;;;;;;76.05;29.23;;;;;;;;;;4997210;28;20492;-84
2021/01/27 13:06:53;;;;;;;75.60;29.58;;;;;;;;;;5013195;28;20149;-89
2021/01/27 13:09:29;;;;;;;71.40;30.40;;;;;;;;;;5015028;28;20042;-93
2021/01/27 13:12:10;;;;;;;63.45;27.85;;;;;;;;;;5012191;28;20164;-92
2021/01/27 13:14:39;;;;;;;71.57;30.17;;;;;;;;;;4994674;28;20504;-91
2021/01/27 13:17:32;;;;;;;72.00;30.17;;;;;;;;;;4979411;28;20960;-90
2021/01/27 13:20:11;;;;;;;;;;;;;;;;;;;;;
2021/01/27 13:22:46;;;;;;;72.88;29.25;;;;;;;;;;5012131;28;20049;-92
2021/01/27 13:25:21;;;;;;;72.40;29.33;;;;;;;;;;4979265;28;20168;-91
2021/01/27 13:27:54;;;;;;;84.07;32.55;;;;;;;;;;4995273;28;20404;-91
2021/01/27 13:30:21;;;;;;;80.63;30.90;;;;;;;;;;4996322;28;20402;-92
2021/01/27 13:32:48;;;;;;;89.20;32.50;;;;;;;;;;4995580;28;20038;-89
2021/01/27 13:35:17;;;;;;;116.25;34.78;;;;;;;;;;4992018;28;20046;-89
2021/01/27 13:37:43;;;;;;;88.72;33.83;;;;;;;;;;5010315;28;20121;-89
2021/01/27 13:40:10;;;;;;;106.00;35.63;;;;;;;;;;4992850;28;20053;-95
2021/01/27 13:42:37;;;;;;;105.70;35.25;;;;;;;;;;4992892;28;20037;-92
2021/01/27 13:45:06;;;;;;;115.32;36.95;;;;;;;;;;4990000;28;20145;-92
2021/01/27 13:47:32;;;;;;;129.68;38.33;;;;;;;;;;5008253;28;20050;-92
2021/01/27 13:49:59;;;;;;;121.88;38.35;;;;;;;;;;5006247;28;20062;-89
2021/01/27 13:52:25;;;;;;;127.38;39.63;;;;;;;;;;5008875;28;20056;-88
2021/01/27 13:54:51;;;;;;;143.50;41.28;;;;;;;;;;4976605;28;20050;-91
2021/01/27 13:57:18;;;;;;;110.60;40.60;;;;;;;;;;4991164;28;20042;-83
2021/01/27 13:59:44;;;;;;;124.07;41.08;;;;;;;;;;4989685;28;20111;-84
2021/01/27 14:02:11;;;;;;;101.18;39.97;;;;;;;;;;5003407;28;20129;-85
2021/01/27 14:04:37;;;;;;;106.38;40.13;;;;;;;;;;4986965;28;20430;-83
2021/01/27 14:07:04;;;;;;;141.32;41.65;;;;;;;;;;5004493;28;20041;-85
2021/01/27 14:09:30;;;;;;;101.75;38.78;;;;;;;;;;4992444;28;20038;-85
2021/01/27 14:11:57;;;;;;;93.70;39.58;;;;;;;;;;4989694;28;20037;-85
2021/01/27 14:14:23;;;;;;;87.40;38.72;;;;;;;;;;4977884;28;20068;-85
2021/01/27 14:16:49;;;;;;;101.55;38.80;;;;;;;;;;4998225;28;20136;-85
2021/01/27 14:19:18;;;;;;;93.25;38.75;;;;;;;;;;5000736;28;20140;-85
2021/01/27 14:21:44;;;;;;;77.90;36.08;;;;;;;;;;5000733;28;20099;-84
2021/01/27 14:24:11;;;;;;;101.57;40.95;;;;;;;;;;4983415;28;20053;-84
2021/01/27 14:26:37;;;;;;;81.60;36.67;;;;;;;;;;4983212;28;20049;-85
2021/01/27 14:29:03;;;;;;;79.10;36.72;;;;;;;;;;5000641;28;20066;-85
2021/01/27 14:31:29;;;;;;;60.70;31.05;;;;;;;;;;5001488;28;20072;-85
2021/01/27 14:33:55;;;;;;;49.92;28.25;;;;;;;;;;5000531;28;20042;-86
2021/01/27 14:36:21;;;;;;;48.88;27.25;;;;;;;;;;5008812;28;20121;-85
2021/01/27 14:38:48;;;;;;;54.90;28.33;;;;;;;;;;4969972;28;20077;-83
2021/01/27 14:41:17;;;;;;;47.80;26.23;;;;;;;;;;4983183;28;20431;-86
2021/01/27 14:43:44;;;;;;;44.58;25.83;;;;;;;;;;4987137;28;20073;-92
2021/01/27 14:46:11;;;;;;;54.00;27.67;;;;;;;;;;5019591;28;20124;-84
2021/01/27 14:48:43;;;;;;;36.00;22.63;;;;;;;;;;5000287;28;20065;-93